Time;durP1;ratioP1;P1;durP2;ratioP2;P2;SDS_P1;SDS_P2;PMS_P1;PMS_P2;Temp;Humidity;BMP_temperature;BMP_pressure;BME280_temperature;BME280_humidity;BME280_pressure;Samples;Min_cycle;Max_cycle;Signal;HPM_P1;HPM_P2
2022/08/20 00:01:59;;;;;;;1.00;0.90;;;16.40;99.90;;;;;;5080957;28;20554;-81
2022/08/20 00:04:26;;;;;;;1.70;1.23;;;16.50;99.90;;;;;;5083238;28;20568;-83
2022/08/20 00:06:53;;;;;;;0.97;0.87;;;16.50;99.90;;;;;;5079643;28;20547;-83
2022/08/20 00:09:20;;;;;;;0.70;0.67;;;16.50;99.90;;;;;;5078322;28;21042;-82
2022/08/20 00:11:47;;;;;;;3.53;0.90;;;16.40;99.90;;;;;;5077630;28;20458;-81
2022/08/20 00:14:16;;;;;;;2.10;0.90;;;16.40;99.90;;;;;;5081830;28;20721;-83
2022/08/20 00:16:43;;;;;;;0.80;0.80;;;16.30;99.90;;;;;;5080168;28;20498;-81
2022/08/20 00:19:10;;;;;;;1.60;1.00;;;16.30;99.90;;;;;;5083116;28;20547;-84
2022/08/20 00:21:38;;;;;;;1.93;0.77;;;16.20;99.90;;;;;;5080951;28;20473;-83
2022/08/20 00:24:05;;;;;;;0.80;0.80;;;16.20;99.90;;;;;;5075669;28;20543;-82
2022/08/20 00:26:33;;;;;;;2.33;1.23;;;16.20;99.90;;;;;;5083937;28;20458;-82
2022/08/20 00:29:00;;;;;;;0.93;0.60;;;16.20;99.90;;;;;;5081232;28;20546;-82
2022/08/20 00:31:28;;;;;;;1.10;1.00;;;16.30;99.90;;;;;;5081799;28;20520;-82
2022/08/20 00:33:55;;;;;;;1.10;0.80;;;16.30;99.90;;;;;;5081073;28;20945;-81
2022/08/20 00:36:23;;;;;;;2.07;0.90;;;16.20;99.90;;;;;;5077397;28;20538;-84
2022/08/20 00:38:50;;;;;;;1.97;1.03;;;16.20;99.90;;;;;;5082097;28;20443;-82
2022/08/20 00:41:21;;;;;;;2.03;0.90;;;16.20;99.90;;;;;;5081190;28;20452;-82
2022/08/20 00:43:51;;;;;;;1.93;1.00;;;16.20;99.90;;;;;;5085481;28;20528;-81
2022/08/20 00:46:22;;;;;;;0.93;0.90;;;16.20;99.90;;;;;;5084592;28;20470;-81
2022/08/20 00:48:52;;;;;;;1.53;1.37;;;16.10;99.90;;;;;;5084342;28;20482;-82
2022/08/20 00:51:26;;;;;;;1.23;0.80;;;16.00;99.90;;;;;;5082446;28;20500;-82
2022/08/20 00:53:55;;;;;;;1.30;0.90;;;16.10;99.90;;;;;;5080029;28;20930;-82
2022/08/20 00:56:23;;;;;;;1.70;1.60;;;16.10;99.90;;;;;;5078018;28;20523;-82
2022/08/20 00:58:51;;;;;;;3.40;1.27;;;16.10;99.90;;;;;;5074625;28;20455;-81
2022/08/20 01:01:18;;;;;;;2.00;1.00;;;16.00;99.90;;;;;;5076026;28;20835;-84
2022/08/20 01:03:46;;;;;;;2.10;1.07;;;16.10;99.90;;;;;;5082594;28;20450;-82
2022/08/20 01:06:14;;;;;;;1.13;0.77;;;16.10;99.90;;;;;;5073845;28;20488;-82
2022/08/20 01:08:42;;;;;;;1.00;0.90;;;16.00;99.90;;;;;;5073989;28;20482;-82
2022/08/20 01:11:11;;;;;;;1.20;1.10;;;16.00;99.90;;;;;;5082190;28;20953;-84
2022/08/20 01:13:40;;;;;;;0.60;0.50;;;16.00;99.90;;;;;;5079600;28;21109;-82
2022/08/20 01:16:17;;;;;;;0.83;0.80;;;16.00;99.90;;;;;;5077285;28;20474;-83
2022/08/20 01:18:47;;;;;;;0.70;0.60;;;16.00;99.90;;;;;;5080456;28;20537;-82
2022/08/20 01:21:19;;;;;;;0.93;0.60;;;16.00;99.90;;;;;;5079349;28;20528;-81
2022/08/20 01:23:55;;;;;;;1.63;1.10;;;15.90;99.90;;;;;;5078280;28;20563;-81
2022/08/20 01:26:27;;;;;;;0.93;0.83;;;16.00;99.90;;;;;;5077123;28;20999;-82
2022/08/20 01:28:57;;;;;;;1.33;0.70;;;16.00;99.90;;;;;;5078527;28;20972;-82
2022/08/20 01:31:26;;;;;;;1.10;0.80;;;16.00;99.90;;;;;;5076558;28;20460;-81
2022/08/20 01:33:55;;;;;;;0.73;0.50;;;16.10;99.90;;;;;;5078661;28;20462;-83
2022/08/20 01:36:29;;;;;;;0.50;0.40;;;16.00;99.90;;;;;;5082339;28;20466;-82
2022/08/20 01:38:56;;;;;;;0.80;0.70;;;16.00;99.90;;;;;;5077582;28;20518;-82
2022/08/20 01:41:35;;;;;;;0.60;0.60;;;16.00;99.90;;;;;;5082625;28;20469;-82
2022/08/20 01:44:02;;;;;;;1.33;0.80;;;16.00;99.90;;;;;;5076663;28;20577;-85
2022/08/20 01:46:31;;;;;;;2.03;0.60;;;16.00;99.90;;;;;;5079036;28;20468;-82
2022/08/20 01:49:08;;;;;;;0.57;0.50;;;15.90;99.90;;;;;;5077689;28;20552;-81
2022/08/20 01:51:35;;;;;;;0.83;0.60;;;15.90;99.90;;;;;;5075098;28;21642;-83
2022/08/20 01:54:03;;;;;;;0.90;0.70;;;15.90;99.90;;;;;;5079305;28;20494;-82
2022/08/20 01:56:33;;;;;;;1.27;0.60;;;15.90;99.90;;;;;;5084385;28;20467;-82
2022/08/20 01:59:05;;;;;;;0.90;0.60;;;16.00;99.90;;;;;;5074561;28;20460;-85
2022/08/20 02:01:38;;;;;;;0.70;0.50;;;15.90;99.90;;;;;;5083850;28;20462;-82
2022/08/20 02:04:08;;;;;;;0.70;0.63;;;16.00;99.90;;;;;;5084087;28;20465;-82
2022/08/20 02:06:39;;;;;;;2.27;0.97;;;15.90;99.90;;;;;;5085228;28;20876;-82
2022/08/20 02:09:08;;;;;;;0.67;0.60;;;15.90;99.90;;;;;;5086305;28;20495;-83
2022/08/20 02:11:37;;;;;;;2.30;0.50;;;16.00;99.90;;;;;;5089617;28;20467;-82
2022/08/20 02:14:07;;;;;;;1.63;0.83;;;15.90;99.90;;;;;;5096151;28;20475;-82
2022/08/20 02:16:38;;;;;;;2.33;1.03;;;15.90;99.90;;;;;;5084137;28;20467;-83
2022/08/20 02:19:11;;;;;;;2.77;1.80;;;15.70;99.90;;;;;;5083481;28;20460;-84
2022/08/20 02:21:42;;;;;;;1.03;0.87;;;15.60;99.90;;;;;;5072240;28;20541;-84
2022/08/20 02:24:10;;;;;;;1.03;0.90;;;15.60;99.90;;;;;;5078212;28;20515;-82
2022/08/20 02:26:39;;;;;;;1.07;0.60;;;15.50;99.90;;;;;;5088335;28;20530;-82
2022/08/20 02:29:10;;;;;;;1.37;0.50;;;15.60;99.90;;;;;;5079600;28;20528;-82
2022/08/20 02:31:38;;;;;;;3.77;0.60;;;15.70;99.90;;;;;;5079063;28;20465;-83
2022/08/20 02:34:08;;;;;;;0.60;0.60;;;15.60;99.90;;;;;;5077851;28;20532;-82
2022/08/20 02:36:36;;;;;;;0.80;0.50;;;15.60;99.90;;;;;;5081690;28;20465;-82
2022/08/20 02:39:06;;;;;;;0.80;0.63;;;15.50;99.90;;;;;;5075881;28;20455;-82
2022/08/20 02:41:33;;;;;;;1.03;0.70;;;15.50;99.90;;;;;;5078668;28;21218;-81
2022/08/20 02:44:01;;;;;;;1.17;0.80;;;15.40;99.90;;;;;;5078520;28;20491;-81
2022/08/20 02:46:29;;;;;;;3.80;0.80;;;15.40;99.90;;;;;;5076255;28;20482;-82
2022/08/20 02:48:56;;;;;;;0.90;0.60;;;15.40;99.90;;;;;;5079826;28;20467;-81
2022/08/20 02:51:24;;;;;;;0.77;0.60;;;15.50;99.90;;;;;;5075264;28;20450;-82
2022/08/20 02:53:51;;;;;;;1.10;0.90;;;15.60;99.90;;;;;;5078018;28;21038;-82
2022/08/20 02:56:18;;;;;;;1.00;0.90;;;15.60;99.90;;;;;;5076099;28;20507;-82
2022/08/20 02:58:46;;;;;;;0.97;0.87;;;15.60;99.90;;;;;;5080211;28;20465;-82
2022/08/20 03:01:17;;;;;;;2.60;0.83;;;15.60;99.90;;;;;;5082791;28;20480;-82
2022/08/20 03:03:45;;;;;;;3.03;0.70;;;15.50;99.90;;;;;;5086175;28;21017;-82
2022/08/20 03:06:14;;;;;;;1.00;0.70;;;15.50;99.90;;;;;;5079532;28;20547;-81
2022/08/20 03:08:42;;;;;;;0.77;0.67;;;15.40;99.90;;;;;;5082072;28;20461;-83
2022/08/20 03:11:11;;;;;;;1.13;0.70;;;15.30;99.90;;;;;;5080454;28;20485;-82
2022/08/20 03:13:38;;;;;;;1.03;0.90;;;15.30;99.90;;;;;;5081336;28;20457;-82
2022/08/20 03:16:06;;;;;;;1.30;0.77;;;15.40;99.90;;;;;;5087590;28;20531;-80
2022/08/20 03:18:39;;;;;;;1.13;0.97;;;15.40;99.90;;;;;;5075614;28;21005;-82
2022/08/20 03:21:08;;;;;;;2.60;1.33;;;15.40;99.90;;;;;;5080291;28;20462;-81
2022/08/20 03:23:36;;;;;;;0.90;0.70;;;15.50;99.90;;;;;;5078239;28;20468;-81
2022/08/20 03:26:04;;;;;;;1.33;0.73;;;15.50;99.90;;;;;;5077945;28;20485;-82
2022/08/20 03:28:32;;;;;;;0.80;0.53;;;15.50;99.90;;;;;;5073420;28;20461;-85
2022/08/20 03:30:59;;;;;;;1.03;1.03;;;15.40;99.90;;;;;;5081224;28;20450;-82
2022/08/20 03:33:27;;;;;;;4.60;1.03;;;15.50;99.90;;;;;;5073908;28;20552;-81
2022/08/20 03:35:55;;;;;;;1.33;0.87;;;15.50;99.90;;;;;;5082104;28;20474;-82
2022/08/20 03:38:23;;;;;;;1.10;0.63;;;15.60;99.90;;;;;;5082219;28;20475;-83
2022/08/20 03:40:51;;;;;;;0.90;0.67;;;15.60;99.90;;;;;;5081574;28;20465;-82
2022/08/20 03:43:18;;;;;;;2.20;0.70;;;15.60;99.90;;;;;;5082613;28;21039;-85
2022/08/20 03:45:46;;;;;;;2.00;1.37;;;15.70;99.90;;;;;;5082928;28;21022;-83
2022/08/20 03:48:16;;;;;;;0.80;0.70;;;15.80;99.90;;;;;;5083092;28;20502;-82
2022/08/20 03:50:43;;;;;;;0.80;0.60;;;15.80;99.90;;;;;;5078265;28;20543;-81
2022/08/20 03:53:15;;;;;;;1.40;1.10;;;15.80;99.90;;;;;;5082371;28;20456;-81
2022/08/20 03:55:45;;;;;;;1.33;1.10;;;15.90;99.90;;;;;;5072743;28;20509;-81
2022/08/20 03:58:13;;;;;;;3.40;0.80;;;15.90;99.90;;;;;;5079582;28;20469;-82
2022/08/20 04:00:44;;;;;;;0.80;0.50;;;15.90;99.90;;;;;;5079395;28;20498;-81
2022/08/20 04:03:11;;;;;;;1.07;0.60;;;15.90;99.90;;;;;;5081006;28;20458;-82
2022/08/20 04:05:40;;;;;;;0.60;0.60;;;16.00;99.90;;;;;;5082601;28;20600;-81
2022/08/20 04:08:08;;;;;;;0.50;0.40;;;16.10;99.90;;;;;;5080115;28;20466;-84
2022/08/20 04:10:37;;;;;;;1.13;0.40;;;16.20;99.90;;;;;;5083156;28;20490;-84
2022/08/20 04:13:05;;;;;;;0.47;0.30;;;16.20;99.90;;;;;;5072102;28;20497;-82
2022/08/20 04:15:34;;;;;;;0.40;0.30;;;16.30;99.90;;;;;;5079219;28;20481;-82
2022/08/20 04:18:06;;;;;;;0.50;0.40;;;16.40;99.90;;;;;;5091233;28;20456;-84
2022/08/20 04:20:35;;;;;;;0.50;0.37;;;16.50;99.90;;;;;;5087657;28;20442;-83
2022/08/20 04:23:02;;;;;;;0.77;0.40;;;16.50;99.90;;;;;;5083413;28;20450;-81
2022/08/20 04:25:30;;;;;;;0.60;0.33;;;16.50;99.90;;;;;;5084853;28;20482;-82
2022/08/20 04:28:00;;;;;;;0.40;0.30;;;16.60;99.90;;;;;;5069512;28;20470;-81
2022/08/20 04:30:28;;;;;;;0.40;0.30;;;16.60;99.90;;;;;;5086951;28;20493;-81
2022/08/20 04:32:56;;;;;;;1.33;0.30;;;16.60;99.90;;;;;;5092999;28;20445;-81
2022/08/20 04:35:24;;;;;;;0.40;0.30;;;16.60;99.90;;;;;;5078458;28;20904;-81
2022/08/20 04:37:58;;;;;;;0.43;0.40;;;16.60;99.90;;;;;;5082906;28;20541;-81
2022/08/20 04:43:11;;;;;;;0.40;0.30;;;16.70;99.90;;;;;;5086078;28;20480;-83
2022/08/20 04:45:39;;;;;;;0.50;0.50;;;16.60;99.90;;;;;;5079946;28;20483;-81
2022/08/20 04:48:06;;;;;;;0.50;0.30;;;16.70;99.90;;;;;;5080681;28;21116;-81
2022/08/20 04:50:35;;;;;;;0.70;0.37;;;16.70;99.90;;;;;;5088551;28;20564;-81
2022/08/20 04:53:03;;;;;;;0.50;0.40;;;16.60;99.90;;;;;;5089420;28;20631;-82
2022/08/20 04:55:30;;;;;;;0.50;0.50;;;16.60;99.90;;;;;;5086563;28;20632;-81
2022/08/20 04:58:04;;;;;;;0.70;0.40;;;16.50;99.90;;;;;;5076471;28;21185;-81
2022/08/20 05:00:33;;;;;;;0.50;0.40;;;16.50;99.90;;;;;;5088041;28;20993;-81
2022/08/20 05:03:01;;;;;;;0.90;0.60;;;16.50;99.90;;;;;;5083678;28;20473;-82
2022/08/20 05:05:29;;;;;;;1.17;1.17;;;16.40;99.90;;;;;;5087177;28;20536;-80
2022/08/20 05:07:57;;;;;;;0.70;0.67;;;16.40;99.90;;;;;;5088560;28;20449;-82
2022/08/20 05:10:25;;;;;;;1.27;0.70;;;16.40;99.90;;;;;;5080521;28;20465;-83
2022/08/20 05:12:52;;;;;;;0.50;0.43;;;16.40;99.90;;;;;;5071621;28;20460;-84
2022/08/20 05:15:19;;;;;;;0.90;0.60;;;16.40;99.90;;;;;;5079452;28;20993;-81
2022/08/20 05:17:50;;;;;;;0.90;0.70;;;16.40;99.90;;;;;;5075525;28;20452;-81
2022/08/20 05:20:18;;;;;;;1.20;0.57;;;16.40;99.90;;;;;;5084811;28;20475;-81
2022/08/20 05:22:45;;;;;;;0.73;0.67;;;16.50;99.90;;;;;;5080577;28;20464;-82
2022/08/20 05:25:12;;;;;;;1.83;0.60;;;16.50;99.90;;;;;;5082231;28;20466;-80
2022/08/20 05:27:40;;;;;;;0.53;0.47;;;16.60;99.90;;;;;;5083893;28;20465;-81
2022/08/20 05:30:11;;;;;;;0.90;0.70;;;16.60;99.90;;;;;;5085494;28;20482;-80
2022/08/20 05:32:38;;;;;;;0.73;0.70;;;16.70;99.90;;;;;;5067698;28;20868;-79
2022/08/20 05:35:09;;;;;;;0.50;0.50;;;16.70;99.90;;;;;;5067854;28;20495;-79
2022/08/20 05:37:37;;;;;;;0.80;0.63;;;16.70;99.90;;;;;;5067678;28;20451;-81
2022/08/20 05:40:10;;;;;;;0.80;0.70;;;16.70;99.90;;;;;;5071001;28;20480;-81
2022/08/20 05:42:37;;;;;;;0.73;0.67;;;16.80;99.90;;;;;;5068611;28;20906;-81
2022/08/20 05:45:05;;;;;;;1.40;0.63;;;16.80;99.90;;;;;;5065520;28;20508;-83
2022/08/20 05:47:33;;;;;;;1.10;0.77;;;16.90;99.90;;;;;;5071358;28;20493;-82
2022/08/20 05:50:01;;;;;;;1.00;0.70;;;17.00;99.90;;;;;;5076258;28;20554;-80
2022/08/20 05:52:29;;;;;;;1.07;0.80;;;17.00;99.90;;;;;;5074497;28;20462;-80
2022/08/20 05:54:56;;;;;;;0.70;0.70;;;17.00;99.90;;;;;;5068837;28;20863;-82
2022/08/20 05:57:23;;;;;;;1.40;1.20;;;17.00;99.90;;;;;;5067759;28;21043;-81
2022/08/20 05:59:51;;;;;;;0.60;0.60;;;17.00;99.90;;;;;;5070998;28;20511;-79
2022/08/20 06:05:10;;;;;;;0.67;0.63;;;17.00;99.90;;;;;;5042370;28;20434;-81
2022/08/20 06:07:39;;;;;;;1.10;0.90;;;17.00;99.90;;;;;;5072268;28;20586;-81
2022/08/20 06:10:09;;;;;;;0.80;0.67;;;17.00;99.90;;;;;;5074733;28;20464;-79
2022/08/20 06:12:36;;;;;;;0.50;0.40;;;17.10;99.90;;;;;;5068154;28;20620;-79
2022/08/20 06:15:04;;;;;;;0.80;0.60;;;17.10;99.90;;;;;;5068685;28;20463;-81
2022/08/20 06:17:32;;;;;;;0.90;0.60;;;17.10;99.90;;;;;;5069672;28;20910;-80
2022/08/20 06:20:03;;;;;;;0.90;0.73;;;17.00;99.90;;;;;;5083310;28;20496;-81
2022/08/20 06:22:30;;;;;;;1.00;0.60;;;17.00;99.90;;;;;;5068787;28;20458;-81
2022/08/20 06:24:59;;;;;;;0.50;0.50;;;17.00;99.90;;;;;;5064742;28;20471;-80
2022/08/20 06:27:27;;;;;;;0.70;0.60;;;17.00;99.90;;;;;;5068961;28;20487;-81
2022/08/20 06:29:54;;;;;;;1.80;0.80;;;17.00;99.90;;;;;;5064784;28;20460;-80
2022/08/20 06:32:23;;;;;;;0.70;0.70;;;17.00;99.90;;;;;;5065716;28;20482;-80
2022/08/20 06:34:50;;;;;;;1.40;0.80;;;16.90;99.90;;;;;;5068989;28;20469;-82
2022/08/20 06:37:18;;;;;;;1.50;1.27;;;17.00;99.90;;;;;;5069054;28;20461;-80
2022/08/20 06:39:45;;;;;;;2.30;0.60;;;16.90;99.90;;;;;;5069915;28;21169;-80
2022/08/20 06:42:14;;;;;;;0.70;0.60;;;17.00;99.90;;;;;;5069809;28;20523;-81
2022/08/20 06:44:41;;;;;;;1.70;0.60;;;17.00;99.90;;;;;;5069475;28;20478;-82
2022/08/20 06:47:09;;;;;;;0.70;0.60;;;17.10;99.90;;;;;;5081409;28;20478;-80
2022/08/20 06:49:36;;;;;;;0.90;0.70;;;17.10;99.90;;;;;;5076965;28;20498;-81
2022/08/20 06:52:04;;;;;;;1.50;0.83;;;17.10;99.90;;;;;;5079940;28;21163;-79
2022/08/20 06:54:33;;;;;;;0.97;0.87;;;17.10;99.90;;;;;;5075610;28;20499;-80
2022/08/20 06:57:00;;;;;;;0.93;0.70;;;17.00;99.90;;;;;;5080898;28;20802;-82
2022/08/20 06:59:28;;;;;;;1.87;1.30;;;16.90;99.90;;;;;;5078784;28;20542;-81
2022/08/20 07:01:56;;;;;;;0.60;0.50;;;16.80;99.90;;;;;;5077047;28;20444;-80
2022/08/20 07:04:24;;;;;;;0.70;0.50;;;16.80;99.90;;;;;;5081884;28;21244;-81
2022/08/20 07:06:51;;;;;;;1.67;1.00;;;16.70;99.90;;;;;;5078641;28;20487;-80
2022/08/20 07:09:18;;;;;;;0.80;0.70;;;16.60;99.90;;;;;;5079477;28;20477;-87
2022/08/20 07:11:47;;;;;;;1.13;0.67;;;16.60;99.90;;;;;;5080092;28;20507;-82
2022/08/20 07:14:14;;;;;;;0.77;0.77;;;16.50;99.90;;;;;;5076212;28;20454;-81
2022/08/20 07:16:42;;;;;;;0.73;0.60;;;16.50;99.90;;;;;;5075009;28;21151;-82
2022/08/20 07:19:10;;;;;;;0.93;0.50;;;16.50;99.90;;;;;;5078331;28;20863;-80
2022/08/20 07:21:37;;;;;;;0.70;0.60;;;16.50;99.90;;;;;;5084242;28;20959;-80
2022/08/20 07:24:04;;;;;;;0.60;0.50;;;16.50;99.90;;;;;;5081711;28;20987;-80
2022/08/20 07:26:33;;;;;;;0.90;0.80;;;16.40;99.90;;;;;;5079624;28;21016;-81
2022/08/20 07:29:00;;;;;;;1.10;1.00;;;16.40;99.90;;;;;;5079791;28;20545;-81
2022/08/20 07:34:13;;;;;;;0.83;0.70;;;16.50;99.90;;;;;;5078589;28;21024;-82
2022/08/20 07:36:40;;;;;;;0.80;0.60;;;16.50;99.90;;;;;;5081588;28;22438;-79
2022/08/20 07:39:07;;;;;;;0.93;0.80;;;16.50;99.90;;;;;;5080946;28;20450;-81
2022/08/20 07:41:34;;;;;;;0.73;0.70;;;16.50;99.90;;;;;;5084775;28;20517;-81
2022/08/20 07:44:02;;;;;;;1.00;0.80;;;16.40;99.90;;;;;;5078068;28;20476;-83
2022/08/20 07:46:30;;;;;;;1.53;1.43;;;16.40;99.90;;;;;;5079843;28;20482;-81
2022/08/20 07:48:57;;;;;;;2.73;1.70;;;16.40;99.90;;;;;;5073752;28;20457;-81
2022/08/20 07:51:26;;;;;;;2.00;1.10;;;16.30;99.90;;;;;;5069505;28;21212;-81
2022/08/20 07:53:53;;;;;;;1.53;0.90;;;16.30;99.90;;;;;;5069235;28;20490;-82
2022/08/20 07:56:23;;;;;;;1.13;1.00;;;16.30;99.90;;;;;;5065440;28;20446;-82
2022/08/20 07:58:54;;;;;;;1.50;0.80;;;16.30;99.90;;;;;;5071112;28;20449;-79
2022/08/20 08:01:24;;;;;;;1.90;1.37;;;16.30;99.90;;;;;;5068754;28;20465;-81
2022/08/20 08:03:51;;;;;;;1.00;0.90;;;16.50;99.90;;;;;;5064481;28;20450;-81
2022/08/20 08:06:20;;;;;;;1.20;1.03;;;16.50;99.90;;;;;;5065248;28;20463;-81
2022/08/20 08:08:48;;;;;;;1.00;0.90;;;16.50;99.90;;;;;;5078154;28;21012;-79
2022/08/20 08:11:18;;;;;;;1.37;1.27;;;16.40;99.90;;;;;;5078952;28;20447;-80
2022/08/20 08:13:46;;;;;;;1.73;1.33;;;16.40;99.90;;;;;;5076142;28;20519;-86
2022/08/20 08:16:15;;;;;;;1.37;1.00;;;16.40;99.90;;;;;;5090363;28;21128;-83
2022/08/20 08:18:47;;;;;;;0.97;0.67;;;16.40;99.90;;;;;;5076863;28;20469;-89
2022/08/20 08:21:15;;;;;;;1.10;0.73;;;16.40;99.90;;;;;;5084431;28;20544;-88
2022/08/20 08:23:43;;;;;;;5.13;0.80;;;16.40;99.90;;;;;;5085493;28;20449;-88
2022/08/20 08:26:12;;;;;;;13.83;1.77;;;16.40;99.90;;;;;;5082344;28;20465;-84
2022/08/20 08:28:40;;;;;;;0.83;0.70;;;16.30;99.90;;;;;;5079993;28;20460;-83
2022/08/20 08:31:07;;;;;;;0.83;0.80;;;16.30;99.90;;;;;;5090064;28;20475;-86
2022/08/20 08:33:34;;;;;;;1.20;0.90;;;16.40;99.90;;;;;;5080220;28;20481;-85
2022/08/20 08:36:05;;;;;;;1.87;0.97;;;16.40;99.90;;;;;;5086773;28;21007;-88
2022/08/20 08:38:35;;;;;;;0.93;0.80;;;16.40;99.90;;;;;;5074038;28;20442;-85
2022/08/20 08:41:11;;;;;;;2.13;1.93;;;16.50;99.90;;;;;;5069235;28;20458;-85
2022/08/20 08:43:40;;;;;;;3.13;1.20;;;16.50;99.90;;;;;;5084257;28;20483;-84
2022/08/20 08:46:10;;;;;;;1.20;1.20;;;16.50;99.90;;;;;;5069198;28;20447;-87
2022/08/20 08:48:42;;;;;;;1.10;0.90;;;16.60;99.90;;;;;;5072161;28;20490;-86
2022/08/20 08:51:11;;;;;;;1.40;1.30;;;16.70;99.90;;;;;;5069258;28;20461;-86
2022/08/20 08:53:45;;;;;;;1.30;1.20;;;16.70;99.90;;;;;;5076681;28;20548;-86
2022/08/20 08:56:14;;;;;;;2.43;0.90;;;16.80;99.90;;;;;;5077557;28;21032;-85
2022/08/20 08:58:43;;;;;;;1.00;0.90;;;16.80;99.90;;;;;;5089970;28;20517;-84
2022/08/20 09:01:12;;;;;;;1.50;1.40;;;16.80;99.90;;;;;;5075194;28;20530;-88
2022/08/20 09:03:43;;;;;;;1.57;1.47;;;17.00;99.90;;;;;;5075712;28;20466;-86
2022/08/20 09:06:14;;;;;;;1.40;1.30;;;17.00;99.90;;;;;;5083153;28;20455;-86
2022/08/20 09:08:46;;;;;;;4.43;0.90;;;17.20;99.90;;;;;;5081425;28;20496;-89
2022/08/20 09:11:14;;;;;;;1.70;1.07;;;17.20;99.90;;;;;;5087422;28;20829;-87
2022/08/20 09:13:43;;;;;;;1.00;0.90;;;17.20;99.90;;;;;;5078395;28;20636;-87
2022/08/20 09:16:10;;;;;;;1.67;0.87;;;17.20;99.90;;;;;;5087262;28;20494;-87
2022/08/20 09:18:37;;;;;;;3.00;1.70;;;17.20;99.90;;;;;;5067415;28;20459;-87
2022/08/20 09:21:05;;;;;;;1.20;0.80;;;17.30;99.90;;;;;;5068588;28;20509;-87
2022/08/20 09:23:32;;;;;;;1.20;1.00;;;17.30;99.90;;;;;;5070490;28;20501;-90
2022/08/20 09:25:59;;;;;;;1.60;1.50;;;17.40;99.90;;;;;;5077005;28;20469;-87
2022/08/20 09:28:26;;;;;;;1.33;1.13;;;17.30;99.90;;;;;;5079894;28;21000;-90
2022/08/20 09:30:55;;;;;;;2.50;1.67;;;17.30;99.90;;;;;;5078572;28;20504;-91
2022/08/20 09:33:22;;;;;;;2.43;1.40;;;17.30;99.90;;;;;;5078853;28;21140;-91
2022/08/20 09:35:49;;;;;;;2.30;2.10;;;17.30;99.90;;;;;;5086429;28;20449;-89
2022/08/20 09:38:16;;;;;;;1.30;1.13;;;17.30;99.90;;;;;;5078687;28;20469;-87
2022/08/20 09:40:44;;;;;;;1.07;0.97;;;17.40;99.90;;;;;;5074785;28;20447;-89
2022/08/20 09:43:11;;;;;;;1.17;1.07;;;17.40;99.90;;;;;;5082804;28;20489;-90
2022/08/20 09:45:38;;;;;;;0.90;0.80;;;17.50;99.90;;;;;;5081860;28;20501;-91
2022/08/20 09:48:06;;;;;;;1.60;1.37;;;17.50;99.90;;;;;;5081537;28;20490;-87
2022/08/20 09:50:36;;;;;;;5.50;1.43;;;17.50;99.90;;;;;;5082155;28;20445;-88
2022/08/20 09:53:05;;;;;;;1.43;0.90;;;17.40;99.90;;;;;;5084588;28;20539;-87
2022/08/20 09:55:36;;;;;;;1.33;1.00;;;17.30;99.90;;;;;;5076970;28;20470;-87
2022/08/20 09:58:09;;;;;;;1.97;1.00;;;17.30;99.90;;;;;;5081765;28;20515;-91
2022/08/20 10:00:36;;;;;;;2.47;1.10;;;17.30;99.90;;;;;;5078889;28;20462;-87
2022/08/20 10:03:03;;;;;;;2.40;1.40;;;17.30;99.90;;;;;;5079934;28;20576;-87
2022/08/20 10:05:31;;;;;;;1.70;1.33;;;17.40;99.90;;;;;;5086015;28;20527;-87
2022/08/20 10:07:58;;;;;;;1.53;1.43;;;17.50;99.90;;;;;;5079358;28;20991;-89
2022/08/20 10:10:25;;;;;;;1.40;1.30;;;17.50;99.90;;;;;;5069860;28;20560;-89
2022/08/20 10:12:53;;;;;;;2.40;1.87;;;17.50;99.90;;;;;;5080375;28;20539;-90
2022/08/20 10:15:20;;;;;;;2.13;1.67;;;17.60;99.90;;;;;;5080870;28;20786;-88
2022/08/20 10:17:47;;;;;;;1.60;1.30;;;17.50;99.90;;;;;;5083469;28;20549;-88
2022/08/20 10:20:17;;;;;;;1.83;1.53;;;17.50;99.90;;;;;;5074395;28;20471;-88
2022/08/20 10:22:45;;;;;;;1.27;1.20;;;17.60;99.90;;;;;;5072188;28;20530;-88
2022/08/20 10:25:12;;;;;;;1.83;1.73;;;17.60;99.90;;;;;;5090603;28;20468;-87
2022/08/20 10:27:40;;;;;;;2.37;1.67;;;17.60;99.90;;;;;;5075086;28;20875;-88
2022/08/20 10:30:08;;;;;;;1.90;1.30;;;17.60;99.90;;;;;;5079006;28;21112;-89
2022/08/20 10:32:35;;;;;;;2.40;1.90;;;17.60;99.90;;;;;;5065812;28;20517;-90
2022/08/20 10:35:03;;;;;;;1.90;1.80;;;17.60;99.90;;;;;;5068580;28;20454;-88
2022/08/20 10:37:30;;;;;;;1.57;1.40;;;17.80;99.90;;;;;;5066566;28;20466;-88
2022/08/20 10:39:59;;;;;;;2.67;2.47;;;17.90;99.90;;;;;;5066238;28;20440;-87
2022/08/20 10:42:26;;;;;;;2.50;1.97;;;18.00;99.90;;;;;;5070000;28;20460;-88
2022/08/20 10:44:53;;;;;;;3.63;3.33;;;18.10;99.90;;;;;;5067032;28;20487;-89
2022/08/20 10:47:24;;;;;;;3.10;2.13;;;18.30;99.90;;;;;;5071134;28;20484;-89
2022/08/20 10:49:53;;;;;;;2.00;1.33;;;18.30;99.90;;;;;;5086239;28;20533;-82
2022/08/20 10:52:21;;;;;;;2.70;2.47;;;18.60;99.90;;;;;;5079021;28;20463;-80
2022/08/20 10:54:49;;;;;;;2.80;2.17;;;18.80;99.90;;;;;;5083778;28;20470;-80
2022/08/20 10:57:19;;;;;;;1.93;1.53;;;19.00;99.90;;;;;;5073223;28;20470;-83
2022/08/20 10:59:48;;;;;;;2.07;1.23;;;19.10;99.90;;;;;;5070302;28;20491;-84
2022/08/20 11:02:16;;;;;;;1.70;1.60;;;19.20;99.90;;;;;;5073661;28;20470;-82
2022/08/20 11:04:44;;;;;;;1.47;1.20;;;19.10;99.90;;;;;;5071183;28;20497;-82
2022/08/20 11:07:14;;;;;;;2.53;2.40;;;19.10;99.90;;;;;;5069198;28;20514;-81
2022/08/20 11:09:41;;;;;;;2.10;1.73;;;18.90;99.90;;;;;;5066647;28;21160;-80
2022/08/20 11:12:09;;;;;;;2.20;1.40;;;18.90;99.90;;;;;;5071009;28;20459;-82
2022/08/20 11:14:37;;;;;;;2.80;1.60;;;19.00;99.90;;;;;;5066350;28;20444;-80
2022/08/20 11:17:05;;;;;;;2.57;2.37;;;19.00;99.90;;;;;;5066275;28;20464;-82
2022/08/20 11:19:32;;;;;;;1.60;1.30;;;19.10;99.90;;;;;;5066504;28;20607;-81
2022/08/20 11:21:59;;;;;;;2.40;2.13;;;19.10;99.90;;;;;;5070996;28;20551;-80
2022/08/20 11:24:26;;;;;;;3.17;2.50;;;18.90;99.90;;;;;;5077859;28;20477;-81
2022/08/20 11:26:53;;;;;;;2.57;2.37;;;18.70;99.90;;;;;;5068131;28;20909;-80
2022/08/20 11:29:23;;;;;;;4.10;2.80;;;18.50;99.90;;;;;;5078500;28;21189;-80
2022/08/20 11:31:52;;;;;;;2.30;2.10;;;18.40;99.90;;;;;;5067363;28;20986;-80
2022/08/20 11:34:19;;;;;;;2.23;1.97;;;18.40;99.90;;;;;;5064348;28;20460;-81
2022/08/20 11:36:48;;;;;;;1.87;1.73;;;18.30;99.90;;;;;;5064321;28;20876;-82
2022/08/20 11:39:16;;;;;;;12.70;3.27;;;18.30;99.90;;;;;;5064168;28;20463;-80
2022/08/20 11:41:43;;;;;;;4.67;2.50;;;18.40;99.90;;;;;;5068299;28;20465;-81
2022/08/20 11:44:10;;;;;;;2.77;2.50;;;18.20;99.90;;;;;;5063210;28;20954;-80
2022/08/20 11:46:37;;;;;;;2.40;2.17;;;18.10;99.90;;;;;;5070812;28;22286;-86
2022/08/20 11:49:05;;;;;;;2.67;1.63;;;18.00;99.90;;;;;;5073107;28;21201;-80
2022/08/20 11:51:32;;;;;;;3.17;2.00;;;18.00;99.90;;;;;;5075485;28;20473;-80
2022/08/20 11:53:59;;;;;;;1.73;1.63;;;18.00;99.90;;;;;;5074769;28;20464;-82
2022/08/20 11:56:26;;;;;;;1.93;1.63;;;18.10;99.90;;;;;;5073053;28;20548;-83
2022/08/20 11:58:53;;;;;;;2.27;1.80;;;18.20;99.90;;;;;;5075628;28;20961;-80
2022/08/20 12:01:20;;;;;;;2.50;1.80;;;18.20;99.90;;;;;;5077367;28;20976;-81
2022/08/20 12:03:47;;;;;;;2.70;2.27;;;18.10;99.90;;;;;;5076450;28;20498;-81
2022/08/20 12:06:16;;;;;;;2.10;1.90;;;18.20;99.90;;;;;;5073976;28;20874;-81
2022/08/20 12:08:43;;;;;;;1.93;1.70;;;18.20;99.90;;;;;;5074554;28;20490;-81
2022/08/20 12:11:10;;;;;;;2.50;2.30;;;18.10;99.90;;;;;;5069605;28;20458;-81
2022/08/20 12:13:37;;;;;;;1.17;1.07;;;18.20;99.90;;;;;;5081366;28;20529;-80
2022/08/20 12:16:05;;;;;;;3.07;2.70;;;18.20;99.90;;;;;;5076351;28;20531;-81
2022/08/20 12:18:33;;;;;;;2.13;1.37;;;18.20;99.90;;;;;;5075105;28;22189;-80
2022/08/20 12:21:00;;;;;;;1.93;1.50;;;18.30;99.90;;;;;;5070789;28;20461;-81
2022/08/20 12:23:29;;;;;;;3.70;1.60;;;18.60;99.90;;;;;;5081036;28;20448;-81
2022/08/20 12:25:56;;;;;;;1.90;1.80;;;18.60;99.90;;;;;;5077551;28;20803;-80
2022/08/20 12:28:23;;;;;;;1.50;1.40;;;18.70;99.90;;;;;;5080998;28;20487;-81
2022/08/20 12:30:50;;;;;;;2.13;1.93;;;18.90;99.90;;;;;;5084957;28;20463;-82
2022/08/20 12:33:17;;;;;;;3.60;2.43;;;18.80;99.90;;;;;;5076266;28;21000;-82
2022/08/20 12:35:44;;;;;;;2.80;2.60;;;18.90;99.90;;;;;;5072071;28;20448;-83
2022/08/20 12:38:11;;;;;;;3.43;3.13;;;18.90;99.90;;;;;;5071944;28;20532;-82
2022/08/20 12:40:40;;;;;;;2.83;2.50;;;18.90;99.90;;;;;;5078655;28;20496;-81
2022/08/20 12:43:07;;;;;;;3.70;2.90;;;18.80;99.90;;;;;;5081806;28;20463;-81
2022/08/20 12:45:35;;;;;;;2.57;1.90;;;18.70;99.90;;;;;;5077303;28;20541;-81
2022/08/20 12:48:04;;;;;;;3.93;3.03;;;18.70;99.90;;;;;;5076317;28;20495;-81
2022/08/20 12:50:32;;;;;;;2.80;2.60;;;18.70;99.90;;;;;;5070895;28;20484;-80
2022/08/20 12:52:59;;;;;;;5.37;2.30;;;18.80;99.90;;;;;;5068096;28;20470;-81
2022/08/20 12:55:26;;;;;;;3.27;2.07;;;18.80;99.90;;;;;;5073127;28;20490;-81
2022/08/20 12:57:58;;;;;;;3.53;3.23;;;18.80;99.90;;;;;;5074952;28;20917;-83
2022/08/20 13:00:27;;;;;;;3.13;2.83;;;18.90;99.90;;;;;;5071367;28;20560;-83
2022/08/20 13:02:56;;;;;;;3.43;2.03;;;18.80;99.90;;;;;;5069381;28;20479;-82